sensor_id;sensor_type;location;lat;lon;timestamp;temperature;humidity
38684;DHT22;24910;53.248;-6.134;2024-02-23T00:02:22;7.70;82.20
38684;DHT22;24910;53.248;-6.134;2024-02-23T00:04:51;7.70;82.20
38684;DHT22;24910;53.248;-6.134;2024-02-23T00:07:20;7.60;82.10
38684;DHT22;24910;53.248;-6.134;2024-02-23T00:09:49;7.70;82.10
38684;DHT22;24910;53.248;-6.134;2024-02-23T00:12:18;7.70;82.10
38684;DHT22;24910;53.248;-6.134;2024-02-23T00:14:47;7.70;82.00
38684;DHT22;24910;53.248;-6.134;2024-02-23T00:17:19;7.70;82.00
38684;DHT22;24910;53.248;-6.134;2024-02-23T00:19:49;7.70;82.00
38684;DHT22;24910;53.248;-6.134;2024-02-23T00:22:20;7.60;82.00
38684;DHT22;24910;53.248;-6.134;2024-02-23T00:24:49;7.70;82.00
38684;DHT22;24910;53.248;-6.134;2024-02-23T00:27:18;7.60;82.00
38684;DHT22;24910;53.248;-6.134;2024-02-23T00:29:47;7.70;82.20
38684;DHT22;24910;53.248;-6.134;2024-02-23T00:32:16;7.70;82.20
38684;DHT22;24910;53.248;-6.134;2024-02-23T00:34:46;7.60;82.30
38684;DHT22;24910;53.248;-6.134;2024-02-23T00:37:15;7.60;83.30
38684;DHT22;24910;53.248;-6.134;2024-02-23T00:39:44;7.60;82.40
38684;DHT22;24910;53.248;-6.134;2024-02-23T00:42:13;7.60;82.40
38684;DHT22;24910;53.248;-6.134;2024-02-23T00:44:42;7.60;82.30
38684;DHT22;24910;53.248;-6.134;2024-02-23T00:47:11;7.60;82.30
38684;DHT22;24910;53.248;-6.134;2024-02-23T00:49:40;7.70;82.30
38684;DHT22;24910;53.248;-6.134;2024-02-23T00:52:10;7.70;82.20
38684;DHT22;24910;53.248;-6.134;2024-02-23T00:54:39;7.70;82.20
38684;DHT22;24910;53.248;-6.134;2024-02-23T00:57:08;7.70;82.20
38684;DHT22;24910;53.248;-6.134;2024-02-23T00:59:37;7.70;82.30
38684;DHT22;24910;53.248;-6.134;2024-02-23T01:02:06;7.70;82.40
38684;DHT22;24910;53.248;-6.134;2024-02-23T01:04:35;7.70;82.40
38684;DHT22;24910;53.248;-6.134;2024-02-23T01:07:04;7.70;82.40
38684;DHT22;24910;53.248;-6.134;2024-02-23T01:09:34;7.70;82.50
38684;DHT22;24910;53.248;-6.134;2024-02-23T01:12:03;7.80;82.50
38684;DHT22;24910;53.248;-6.134;2024-02-23T01:14:33;7.80;82.50
38684;DHT22;24910;53.248;-6.134;2024-02-23T01:17:02;7.80;82.40
38684;DHT22;24910;53.248;-6.134;2024-02-23T01:19:31;7.80;82.50
38684;DHT22;24910;53.248;-6.134;2024-02-23T01:22:00;7.80;82.40
38684;DHT22;24910;53.248;-6.134;2024-02-23T01:24:29;7.80;82.50
38684;DHT22;24910;53.248;-6.134;2024-02-23T01:26:59;7.70;82.50
38684;DHT22;24910;53.248;-6.134;2024-02-23T01:29:28;7.70;82.60
38684;DHT22;24910;53.248;-6.134;2024-02-23T01:31:57;7.70;82.60
38684;DHT22;24910;53.248;-6.134;2024-02-23T01:34:26;7.70;82.70
38684;DHT22;24910;53.248;-6.134;2024-02-23T01:36:55;7.70;82.80
38684;DHT22;24910;53.248;-6.134;2024-02-23T01:39:24;7.70;82.80
38684;DHT22;24910;53.248;-6.134;2024-02-23T01:41:53;7.70;82.90
38684;DHT22;24910;53.248;-6.134;2024-02-23T01:44:24;7.70;82.90
38684;DHT22;24910;53.248;-6.134;2024-02-23T01:46:53;7.70;82.90
38684;DHT22;24910;53.248;-6.134;2024-02-23T01:49:22;7.60;82.90
38684;DHT22;24910;53.248;-6.134;2024-02-23T01:51:57;7.60;82.90
38684;DHT22;24910;53.248;-6.134;2024-02-23T01:54:26;7.60;83.00
38684;DHT22;24910;53.248;-6.134;2024-02-23T01:56:56;7.50;83.00
38684;DHT22;24910;53.248;-6.134;2024-02-23T01:59:41;7.60;83.10
38684;DHT22;24910;53.248;-6.134;2024-02-23T02:02:10;7.50;83.00
38684;DHT22;24910;53.248;-6.134;2024-02-23T02:04:39;7.50;83.10
38684;DHT22;24910;53.248;-6.134;2024-02-23T02:07:08;7.50;83.00
38684;DHT22;24910;53.248;-6.134;2024-02-23T02:09:38;7.60;83.00
38684;DHT22;24910;53.248;-6.134;2024-02-23T02:12:07;7.60;83.00
38684;DHT22;24910;53.248;-6.134;2024-02-23T02:14:36;7.50;83.00
38684;DHT22;24910;53.248;-6.134;2024-02-23T02:17:06;7.50;83.10
38684;DHT22;24910;53.248;-6.134;2024-02-23T02:19:35;7.50;83.10
38684;DHT22;24910;53.248;-6.134;2024-02-23T02:22:04;7.40;83.10
38684;DHT22;24910;53.248;-6.134;2024-02-23T02:24:33;7.40;83.20
38684;DHT22;24910;53.248;-6.134;2024-02-23T02:27:03;7.40;83.30
38684;DHT22;24910;53.248;-6.134;2024-02-23T02:29:34;7.40;83.20
38684;DHT22;24910;53.248;-6.134;2024-02-23T02:32:04;7.40;83.20
38684;DHT22;24910;53.248;-6.134;2024-02-23T02:34:34;7.40;83.00
38684;DHT22;24910;53.248;-6.134;2024-02-23T02:37:03;7.40;83.00
38684;DHT22;24910;53.248;-6.134;2024-02-23T02:39:34;7.50;83.10
38684;DHT22;24910;53.248;-6.134;2024-02-23T02:42:03;7.40;82.90
38684;DHT22;24910;53.248;-6.134;2024-02-23T02:44:32;7.50;82.90
38684;DHT22;24910;53.248;-6.134;2024-02-23T02:47:01;7.40;82.90
38684;DHT22;24910;53.248;-6.134;2024-02-23T02:49:30;7.40;82.80
38684;DHT22;24910;53.248;-6.134;2024-02-23T02:52:00;7.50;82.80
38684;DHT22;24910;53.248;-6.134;2024-02-23T02:54:29;7.40;82.70
38684;DHT22;24910;53.248;-6.134;2024-02-23T02:56:58;7.40;82.70
38684;DHT22;24910;53.248;-6.134;2024-02-23T02:59:27;7.40;82.70
38684;DHT22;24910;53.248;-6.134;2024-02-23T03:01:56;7.40;82.80
38684;DHT22;24910;53.248;-6.134;2024-02-23T03:04:25;7.40;82.70
38684;DHT22;24910;53.248;-6.134;2024-02-23T03:06:54;7.40;82.60
38684;DHT22;24910;53.248;-6.134;2024-02-23T03:09:25;7.40;82.60
38684;DHT22;24910;53.248;-6.134;2024-02-23T03:11:54;7.40;82.60
38684;DHT22;24910;53.248;-6.134;2024-02-23T03:14:23;7.40;82.50
38684;DHT22;24910;53.248;-6.134;2024-02-23T03:16:52;7.40;82.50
38684;DHT22;24910;53.248;-6.134;2024-02-23T03:19:20;7.40;82.40
38684;DHT22;24910;53.248;-6.134;2024-02-23T03:21:50;7.40;82.50
38684;DHT22;24910;53.248;-6.134;2024-02-23T03:24:19;7.40;82.50
38684;DHT22;24910;53.248;-6.134;2024-02-23T03:26:50;7.40;82.50
38684;DHT22;24910;53.248;-6.134;2024-02-23T03:29:19;7.30;82.50
38684;DHT22;24910;53.248;-6.134;2024-02-23T03:31:48;7.40;82.50
38684;DHT22;24910;53.248;-6.134;2024-02-23T03:34:16;7.30;82.50
38684;DHT22;24910;53.248;-6.134;2024-02-23T03:36:46;7.30;82.60
38684;DHT22;24910;53.248;-6.134;2024-02-23T03:39:15;7.30;82.60
38684;DHT22;24910;53.248;-6.134;2024-02-23T03:41:44;7.30;82.70
38684;DHT22;24910;53.248;-6.134;2024-02-23T03:44:14;7.30;82.70
38684;DHT22;24910;53.248;-6.134;2024-02-23T03:46:43;7.30;82.60
38684;DHT22;24910;53.248;-6.134;2024-02-23T03:49:12;7.30;82.70
38684;DHT22;24910;53.248;-6.134;2024-02-23T03:51:41;7.30;82.70
38684;DHT22;24910;53.248;-6.134;2024-02-23T03:54:10;7.30;82.60
38684;DHT22;24910;53.248;-6.134;2024-02-23T03:56:39;7.30;82.70
38684;DHT22;24910;53.248;-6.134;2024-02-23T03:59:09;7.30;82.70
38684;DHT22;24910;53.248;-6.134;2024-02-23T04:01:39;7.30;82.70
38684;DHT22;24910;53.248;-6.134;2024-02-23T04:04:08;7.30;82.60
38684;DHT22;24910;53.248;-6.134;2024-02-23T04:06:37;7.30;82.50
38684;DHT22;24910;53.248;-6.134;2024-02-23T04:09:06;7.30;82.60
38684;DHT22;24910;53.248;-6.134;2024-02-23T04:11:36;7.30;82.60
38684;DHT22;24910;53.248;-6.134;2024-02-23T04:14:05;7.30;82.70
38684;DHT22;24910;53.248;-6.134;2024-02-23T04:16:34;7.30;82.70
38684;DHT22;24910;53.248;-6.134;2024-02-23T04:19:04;7.30;82.70
38684;DHT22;24910;53.248;-6.134;2024-02-23T04:21:35;7.30;82.60
38684;DHT22;24910;53.248;-6.134;2024-02-23T04:24:05;7.30;82.60
38684;DHT22;24910;53.248;-6.134;2024-02-23T04:26:34;7.30;82.70
38684;DHT22;24910;53.248;-6.134;2024-02-23T04:29:03;7.30;82.70
38684;DHT22;24910;53.248;-6.134;2024-02-23T04:31:32;7.30;82.70
38684;DHT22;24910;53.248;-6.134;2024-02-23T04:34:01;7.20;82.60
38684;DHT22;24910;53.248;-6.134;2024-02-23T04:36:32;7.20;82.70
38684;DHT22;24910;53.248;-6.134;2024-02-23T04:39:01;7.20;82.70
38684;DHT22;24910;53.248;-6.134;2024-02-23T04:41:30;7.20;82.70
38684;DHT22;24910;53.248;-6.134;2024-02-23T04:43:59;7.20;82.80
38684;DHT22;24910;53.248;-6.134;2024-02-23T04:46:30;7.20;82.80
38684;DHT22;24910;53.248;-6.134;2024-02-23T04:48:59;7.20;82.80
38684;DHT22;24910;53.248;-6.134;2024-02-23T04:51:28;7.20;82.80
38684;DHT22;24910;53.248;-6.134;2024-02-23T04:53:59;7.20;82.80
38684;DHT22;24910;53.248;-6.134;2024-02-23T04:56:28;7.10;82.90
38684;DHT22;24910;53.248;-6.134;2024-02-23T04:58:57;7.10;83.00
38684;DHT22;24910;53.248;-6.134;2024-02-23T05:01:26;7.10;83.00
38684;DHT22;24910;53.248;-6.134;2024-02-23T05:03:55;7.10;82.90
38684;DHT22;24910;53.248;-6.134;2024-02-23T05:06:24;7.10;83.00
38684;DHT22;24910;53.248;-6.134;2024-02-23T05:08:53;7.10;83.00
38684;DHT22;24910;53.248;-6.134;2024-02-23T05:11:23;7.10;83.00
38684;DHT22;24910;53.248;-6.134;2024-02-23T05:13:52;7.10;83.10
38684;DHT22;24910;53.248;-6.134;2024-02-23T05:16:21;7.10;83.00
38684;DHT22;24910;53.248;-6.134;2024-02-23T05:18:50;7.10;83.10
38684;DHT22;24910;53.248;-6.134;2024-02-23T05:21:19;7.10;83.00
38684;DHT22;24910;53.248;-6.134;2024-02-23T05:23:48;7.10;83.00
38684;DHT22;24910;53.248;-6.134;2024-02-23T05:26:17;7.10;82.90
38684;DHT22;24910;53.248;-6.134;2024-02-23T05:28:48;7.10;82.90
38684;DHT22;24910;53.248;-6.134;2024-02-23T05:31:17;7.10;82.90
38684;DHT22;24910;53.248;-6.134;2024-02-23T05:33:46;7.10;82.90
38684;DHT22;24910;53.248;-6.134;2024-02-23T05:36:16;7.10;82.90
38684;DHT22;24910;53.248;-6.134;2024-02-23T05:38:46;7.10;82.90
38684;DHT22;24910;53.248;-6.134;2024-02-23T05:41:15;7.10;82.90
38684;DHT22;24910;53.248;-6.134;2024-02-23T05:43:44;7.10;82.90
38684;DHT22;24910;53.248;-6.134;2024-02-23T05:46:14;7.10;82.90
38684;DHT22;24910;53.248;-6.134;2024-02-23T05:48:43;7.10;82.90
38684;DHT22;24910;53.248;-6.134;2024-02-23T05:51:12;7.10;82.90
38684;DHT22;24910;53.248;-6.134;2024-02-23T05:53:41;7.10;82.90
38684;DHT22;24910;53.248;-6.134;2024-02-23T05:56:11;7.10;82.90
38684;DHT22;24910;53.248;-6.134;2024-02-23T05:58:40;7.10;82.80
38684;DHT22;24910;53.248;-6.134;2024-02-23T06:01:09;7.10;82.80
38684;DHT22;24910;53.248;-6.134;2024-02-23T06:03:39;7.10;82.80
38684;DHT22;24910;53.248;-6.134;2024-02-23T06:06:08;7.00;82.80
38684;DHT22;24910;53.248;-6.134;2024-02-23T06:08:37;7.00;82.80
38684;DHT22;24910;53.248;-6.134;2024-02-23T06:11:08;7.00;82.90
38684;DHT22;24910;53.248;-6.134;2024-02-23T06:13:38;7.00;82.90
38684;DHT22;24910;53.248;-6.134;2024-02-23T06:16:09;7.00;83.00
38684;DHT22;24910;53.248;-6.134;2024-02-23T06:18:40;7.00;83.00
38684;DHT22;24910;53.248;-6.134;2024-02-23T06:21:13;7.00;83.10
38684;DHT22;24910;53.248;-6.134;2024-02-23T06:23:42;6.90;83.00
38684;DHT22;24910;53.248;-6.134;2024-02-23T06:26:11;6.90;83.00
38684;DHT22;24910;53.248;-6.134;2024-02-23T06:28:40;6.90;83.10
38684;DHT22;24910;53.248;-6.134;2024-02-23T06:31:10;6.90;83.20
38684;DHT22;24910;53.248;-6.134;2024-02-23T06:33:40;6.90;83.20
38684;DHT22;24910;53.248;-6.134;2024-02-23T06:36:09;6.90;83.20
38684;DHT22;24910;53.248;-6.134;2024-02-23T06:38:38;6.90;83.20
38684;DHT22;24910;53.248;-6.134;2024-02-23T06:41:07;6.90;83.20
38684;DHT22;24910;53.248;-6.134;2024-02-23T06:43:38;6.90;83.20
38684;DHT22;24910;53.248;-6.134;2024-02-23T06:46:07;6.90;83.20
38684;DHT22;24910;53.248;-6.134;2024-02-23T06:48:36;6.90;83.20
38684;DHT22;24910;53.248;-6.134;2024-02-23T06:51:07;6.80;83.20
38684;DHT22;24910;53.248;-6.134;2024-02-23T06:53:37;6.90;83.20
38684;DHT22;24910;53.248;-6.134;2024-02-23T06:56:06;6.90;83.20
38684;DHT22;24910;53.248;-6.134;2024-02-23T06:58:35;6.90;83.20
38684;DHT22;24910;53.248;-6.134;2024-02-23T07:01:04;6.90;83.30
38684;DHT22;24910;53.248;-6.134;2024-02-23T07:03:34;6.90;83.30
38684;DHT22;24910;53.248;-6.134;2024-02-23T07:06:04;6.90;83.20
38684;DHT22;24910;53.248;-6.134;2024-02-23T07:08:35;6.90;83.20
38684;DHT22;24910;53.248;-6.134;2024-02-23T07:11:04;6.90;83.20
38684;DHT22;24910;53.248;-6.134;2024-02-23T07:13:33;6.90;83.20
38684;DHT22;24910;53.248;-6.134;2024-02-23T07:16:02;6.90;83.20
38684;DHT22;24910;53.248;-6.134;2024-02-23T07:18:31;7.00;83.10
38684;DHT22;24910;53.248;-6.134;2024-02-23T07:21:01;6.90;83.10
38684;DHT22;24910;53.248;-6.134;2024-02-23T07:23:30;6.90;83.20
38684;DHT22;24910;53.248;-6.134;2024-02-23T07:26:00;6.90;83.20
38684;DHT22;24910;53.248;-6.134;2024-02-23T07:28:29;6.90;83.30
38684;DHT22;24910;53.248;-6.134;2024-02-23T07:31:00;6.90;83.40
38684;DHT22;24910;53.248;-6.134;2024-02-23T07:33:29;6.90;83.60
38684;DHT22;24910;53.248;-6.134;2024-02-23T07:35:58;6.80;83.60
38684;DHT22;24910;53.248;-6.134;2024-02-23T07:38:27;6.80;83.70
38684;DHT22;24910;53.248;-6.134;2024-02-23T07:40:56;6.80;84.70
38684;DHT22;24910;53.248;-6.134;2024-02-23T07:43:27;6.80;84.00
38684;DHT22;24910;53.248;-6.134;2024-02-23T07:45:56;6.80;84.00
38684;DHT22;24910;53.248;-6.134;2024-02-23T07:48:25;6.70;83.90
38684;DHT22;24910;53.248;-6.134;2024-02-23T07:50:54;6.70;83.90
38684;DHT22;24910;53.248;-6.134;2024-02-23T07:53:23;6.80;84.00
38684;DHT22;24910;53.248;-6.134;2024-02-23T07:55:52;6.80;84.10
38684;DHT22;24910;53.248;-6.134;2024-02-23T07:58:21;6.80;84.10
38684;DHT22;24910;53.248;-6.134;2024-02-23T08:00:52;6.80;84.10
38684;DHT22;24910;53.248;-6.134;2024-02-23T08:03:21;6.80;84.20
38684;DHT22;24910;53.248;-6.134;2024-02-23T08:05:50;6.90;84.30
38684;DHT22;24910;53.248;-6.134;2024-02-23T08:08:19;6.90;84.30
38684;DHT22;24910;53.248;-6.134;2024-02-23T08:10:50;6.90;84.20
38684;DHT22;24910;53.248;-6.134;2024-02-23T08:13:19;7.00;84.20
38684;DHT22;24910;53.248;-6.134;2024-02-23T08:15:48;7.00;84.10
38684;DHT22;24910;53.248;-6.134;2024-02-23T08:18:18;7.10;84.10
38684;DHT22;24910;53.248;-6.134;2024-02-23T08:20:51;7.10;84.10
38684;DHT22;24910;53.248;-6.134;2024-02-23T08:23:20;7.20;84.10
38684;DHT22;24910;53.248;-6.134;2024-02-23T08:25:50;7.20;84.00
38684;DHT22;24910;53.248;-6.134;2024-02-23T08:28:21;7.30;84.10
38684;DHT22;24910;53.248;-6.134;2024-02-23T08:30:50;7.40;84.00
38684;DHT22;24910;53.248;-6.134;2024-02-23T08:33:22;7.40;83.90
38684;DHT22;24910;53.248;-6.134;2024-02-23T08:35:51;7.40;83.80
38684;DHT22;24910;53.248;-6.134;2024-02-23T08:38:20;7.40;84.80
38684;DHT22;24910;53.248;-6.134;2024-02-23T08:40:49;7.40;84.00
38684;DHT22;24910;53.248;-6.134;2024-02-23T08:43:18;7.40;84.10
38684;DHT22;24910;53.248;-6.134;2024-02-23T08:45:47;7.30;84.20
38684;DHT22;24910;53.248;-6.134;2024-02-23T08:48:16;7.40;84.20
38684;DHT22;24910;53.248;-6.134;2024-02-23T08:50:47;7.40;84.20
38684;DHT22;24910;53.248;-6.134;2024-02-23T08:53:16;7.30;84.20
38684;DHT22;24910;53.248;-6.134;2024-02-23T08:55:45;7.30;84.40
38684;DHT22;24910;53.248;-6.134;2024-02-23T08:58:14;7.30;84.40
38684;DHT22;24910;53.248;-6.134;2024-02-23T09:00:43;7.30;84.40
38684;DHT22;24910;53.248;-6.134;2024-02-23T09:03:12;7.40;84.40
38684;DHT22;24910;53.248;-6.134;2024-02-23T09:05:41;7.40;84.40
38684;DHT22;24910;53.248;-6.134;2024-02-23T09:08:12;7.40;84.40
38684;DHT22;24910;53.248;-6.134;2024-02-23T09:10:41;7.50;84.40
38684;DHT22;24910;53.248;-6.134;2024-02-23T09:13:10;7.60;84.40
38684;DHT22;24910;53.248;-6.134;2024-02-23T09:15:39;7.60;84.40
38684;DHT22;24910;53.248;-6.134;2024-02-23T09:18:09;7.70;84.50
38684;DHT22;24910;53.248;-6.134;2024-02-23T09:20:38;7.80;84.40
38684;DHT22;24910;53.248;-6.134;2024-02-23T09:23:07;7.90;84.30
38684;DHT22;24910;53.248;-6.134;2024-02-23T09:25:38;8.00;84.20
38684;DHT22;24910;53.248;-6.134;2024-02-23T09:28:10;8.00;84.10
38684;DHT22;24910;53.248;-6.134;2024-02-23T09:30:40;8.10;84.00
38684;DHT22;24910;53.248;-6.134;2024-02-23T09:33:09;8.00;83.90
38684;DHT22;24910;53.248;-6.134;2024-02-23T09:35:38;8.00;84.00
38684;DHT22;24910;53.248;-6.134;2024-02-23T09:38:07;8.00;84.00
38684;DHT22;24910;53.248;-6.134;2024-02-23T09:40:37;7.90;84.10
38684;DHT22;24910;53.248;-6.134;2024-02-23T09:43:07;7.90;84.10
38684;DHT22;24910;53.248;-6.134;2024-02-23T09:45:36;7.90;84.10
38684;DHT22;24910;53.248;-6.134;2024-02-23T09:48:06;7.90;84.10
38684;DHT22;24910;53.248;-6.134;2024-02-23T09:50:36;7.90;84.20
38684;DHT22;24910;53.248;-6.134;2024-02-23T09:53:06;7.80;84.10
38684;DHT22;24910;53.248;-6.134;2024-02-23T09:55:39;7.90;84.20
38684;DHT22;24910;53.248;-6.134;2024-02-23T09:58:08;7.90;84.20
38684;DHT22;24910;53.248;-6.134;2024-02-23T10:00:37;8.00;84.20
38684;DHT22;24910;53.248;-6.134;2024-02-23T10:03:06;8.00;84.10
38684;DHT22;24910;53.248;-6.134;2024-02-23T10:05:36;8.00;84.10
38684;DHT22;24910;53.248;-6.134;2024-02-23T10:08:09;8.00;84.10
38684;DHT22;24910;53.248;-6.134;2024-02-23T10:10:40;8.00;84.10
38684;DHT22;24910;53.248;-6.134;2024-02-23T10:13:09;8.00;84.00
38684;DHT22;24910;53.248;-6.134;2024-02-23T10:15:38;8.10;84.10
38684;DHT22;24910;53.248;-6.134;2024-02-23T10:18:26;8.10;84.10
38684;DHT22;24910;53.248;-6.134;2024-02-23T10:20:55;8.00;84.00
38684;DHT22;24910;53.248;-6.134;2024-02-23T10:23:25;8.00;84.20
38684;DHT22;24910;53.248;-6.134;2024-02-23T10:25:55;8.00;84.20
38684;DHT22;24910;53.248;-6.134;2024-02-23T10:28:24;8.10;84.20
38684;DHT22;24910;53.248;-6.134;2024-02-23T10:30:53;8.20;84.10
38684;DHT22;24910;53.248;-6.134;2024-02-23T10:33:22;8.20;84.10
38684;DHT22;24910;53.248;-6.134;2024-02-23T10:35:52;8.30;84.00
38684;DHT22;24910;53.248;-6.134;2024-02-23T10:38:24;8.40;83.80
38684;DHT22;24910;53.248;-6.134;2024-02-23T10:40:57;8.40;83.70
38684;DHT22;24910;53.248;-6.134;2024-02-23T10:43:33;8.40;83.60
38684;DHT22;24910;53.248;-6.134;2024-02-23T10:46:04;8.40;83.70
38684;DHT22;24910;53.248;-6.134;2024-02-23T10:48:35;8.40;83.70
38684;DHT22;24910;53.248;-6.134;2024-02-23T10:51:05;8.40;83.70
38684;DHT22;24910;53.248;-6.134;2024-02-23T10:53:35;8.50;83.70
38684;DHT22;24910;53.248;-6.134;2024-02-23T10:56:06;8.50;83.60
38684;DHT22;24910;53.248;-6.134;2024-02-23T10:58:35;8.50;83.60
38684;DHT22;24910;53.248;-6.134;2024-02-23T11:01:05;8.50;83.60
38684;DHT22;24910;53.248;-6.134;2024-02-23T11:03:36;8.60;83.60
38684;DHT22;24910;53.248;-6.134;2024-02-23T11:06:06;8.70;83.50
38684;DHT22;24910;53.248;-6.134;2024-02-23T11:08:35;8.80;83.40
38684;DHT22;24910;53.248;-6.134;2024-02-23T11:11:09;8.90;83.30
38684;DHT22;24910;53.248;-6.134;2024-02-23T11:13:39;8.90;83.20
38684;DHT22;24910;53.248;-6.134;2024-02-23T11:16:08;9.10;83.20
38684;DHT22;24910;53.248;-6.134;2024-02-23T11:18:39;9.20;83.20
38684;DHT22;24910;53.248;-6.134;2024-02-23T11:21:09;9.30;83.10
38684;DHT22;24910;53.248;-6.134;2024-02-23T11:23:40;9.40;83.00
38684;DHT22;24910;53.248;-6.134;2024-02-23T11:26:11;9.50;83.00
38684;DHT22;24910;53.248;-6.134;2024-02-23T11:28:43;9.70;83.00
38684;DHT22;24910;53.248;-6.134;2024-02-23T11:31:13;9.90;82.80
38684;DHT22;24910;53.248;-6.134;2024-02-23T11:33:51;10.10;82.50
38684;DHT22;24910;53.248;-6.134;2024-02-23T11:36:24;10.20;82.40
38684;DHT22;24910;53.248;-6.134;2024-02-23T11:38:53;10.40;82.20
38684;DHT22;24910;53.248;-6.134;2024-02-23T11:41:25;10.50;82.00
38684;DHT22;24910;53.248;-6.134;2024-02-23T11:43:54;10.60;81.90
38684;DHT22;24910;53.248;-6.134;2024-02-23T11:46:24;10.60;81.70
38684;DHT22;24910;53.248;-6.134;2024-02-23T11:48:53;10.60;81.70
38684;DHT22;24910;53.248;-6.134;2024-02-23T11:51:22;10.60;81.70
38684;DHT22;24910;53.248;-6.134;2024-02-23T11:53:54;10.50;81.80
38684;DHT22;24910;53.248;-6.134;2024-02-23T11:56:26;10.50;82.00
38684;DHT22;24910;53.248;-6.134;2024-02-23T11:58:55;10.40;82.10
38684;DHT22;24910;53.248;-6.134;2024-02-23T12:01:24;10.30;81.80
38684;DHT22;24910;53.248;-6.134;2024-02-23T12:03:53;10.10;82.60
38684;DHT22;24910;53.248;-6.134;2024-02-23T12:06:23;10.00;82.30
38684;DHT22;24910;53.248;-6.134;2024-02-23T12:08:55;9.90;82.50
38684;DHT22;24910;53.248;-6.134;2024-02-23T12:11:24;9.90;82.50
38684;DHT22;24910;53.248;-6.134;2024-02-23T12:13:54;9.80;82.50
38684;DHT22;24910;53.248;-6.134;2024-02-23T12:16:27;9.80;82.70
38684;DHT22;24910;53.248;-6.134;2024-02-23T12:18:56;9.80;82.70
38684;DHT22;24910;53.248;-6.134;2024-02-23T12:21:24;9.80;82.70
38684;DHT22;24910;53.248;-6.134;2024-02-23T12:23:53;9.80;82.60
38684;DHT22;24910;53.248;-6.134;2024-02-23T12:26:23;9.90;82.60
38684;DHT22;24910;53.248;-6.134;2024-02-23T12:28:52;9.90;82.50
38684;DHT22;24910;53.248;-6.134;2024-02-23T12:31:30;9.90;82.60
38684;DHT22;24910;53.248;-6.134;2024-02-23T12:33:59;9.90;82.50
38684;DHT22;24910;53.248;-6.134;2024-02-23T12:36:29;9.90;82.50
38684;DHT22;24910;53.248;-6.134;2024-02-23T12:39:02;10.00;82.40
38684;DHT22;24910;53.248;-6.134;2024-02-23T12:41:31;10.00;82.30
38684;DHT22;24910;53.248;-6.134;2024-02-23T12:44:01;10.00;82.20
38684;DHT22;24910;53.248;-6.134;2024-02-23T12:46:31;10.00;82.20
38684;DHT22;24910;53.248;-6.134;2024-02-23T12:49:00;10.10;82.20
38684;DHT22;24910;53.248;-6.134;2024-02-23T12:51:29;10.10;82.20
38684;DHT22;24910;53.248;-6.134;2024-02-23T12:53:59;10.10;82.20
38684;DHT22;24910;53.248;-6.134;2024-02-23T12:56:28;10.10;82.10
38684;DHT22;24910;53.248;-6.134;2024-02-23T12:58:57;10.20;82.10
38684;DHT22;24910;53.248;-6.134;2024-02-23T13:01:26;10.20;82.10
38684;DHT22;24910;53.248;-6.134;2024-02-23T13:03:56;10.20;82.00
38684;DHT22;24910;53.248;-6.134;2024-02-23T13:06:25;10.30;82.10
38684;DHT22;24910;53.248;-6.134;2024-02-23T13:08:54;10.40;82.00
38684;DHT22;24910;53.248;-6.134;2024-02-23T13:11:23;10.60;81.90
38684;DHT22;24910;53.248;-6.134;2024-02-23T13:13:52;10.60;81.70
38684;DHT22;24910;53.248;-6.134;2024-02-23T13:16:21;10.70;81.60
38684;DHT22;24910;53.248;-6.134;2024-02-23T13:18:50;10.80;81.70
38684;DHT22;24910;53.248;-6.134;2024-02-23T13:21:21;10.90;81.60
38684;DHT22;24910;53.248;-6.134;2024-02-23T13:23:50;11.00;81.50
38684;DHT22;24910;53.248;-6.134;2024-02-23T13:26:19;11.00;81.40
38684;DHT22;24910;53.248;-6.134;2024-02-23T13:28:48;11.00;81.40
38684;DHT22;24910;53.248;-6.134;2024-02-23T13:31:17;11.00;81.30
38684;DHT22;24910;53.248;-6.134;2024-02-23T13:33:46;10.90;81.40
38684;DHT22;24910;53.248;-6.134;2024-02-23T13:36:15;10.90;81.40
38684;DHT22;24910;53.248;-6.134;2024-02-23T13:38:45;10.80;81.60
38684;DHT22;24910;53.248;-6.134;2024-02-23T13:41:14;10.70;81.60
38684;DHT22;24910;53.248;-6.134;2024-02-23T13:43:44;10.70;81.80
38684;DHT22;24910;53.248;-6.134;2024-02-23T13:46:13;10.70;82.60
38684;DHT22;24910;53.248;-6.134;2024-02-23T13:48:42;10.70;81.80
38684;DHT22;24910;53.248;-6.134;2024-02-23T13:51:11;10.60;81.70
38684;DHT22;24910;53.248;-6.134;2024-02-23T13:53:40;10.60;81.70
38684;DHT22;24910;53.248;-6.134;2024-02-23T13:56:10;10.60;81.70
38684;DHT22;24910;53.248;-6.134;2024-02-23T13:58:39;10.50;81.80
38684;DHT22;24910;53.248;-6.134;2024-02-23T14:01:08;10.40;81.80
38684;DHT22;24910;53.248;-6.134;2024-02-23T14:03:37;10.30;81.90
38684;DHT22;24910;53.248;-6.134;2024-02-23T14:06:06;10.20;82.00
38684;DHT22;24910;53.248;-6.134;2024-02-23T14:08:35;10.20;82.00
38684;DHT22;24910;53.248;-6.134;2024-02-23T14:11:06;10.10;82.00
38684;DHT22;24910;53.248;-6.134;2024-02-23T14:13:36;10.10;82.10
38684;DHT22;24910;53.248;-6.134;2024-02-23T14:16:05;10.00;82.20
38684;DHT22;24910;53.248;-6.134;2024-02-23T14:18:34;10.00;82.20
38684;DHT22;24910;53.248;-6.134;2024-02-23T14:21:05;10.00;82.20
38684;DHT22;24910;53.248;-6.134;2024-02-23T14:23:34;10.00;82.20
38684;DHT22;24910;53.248;-6.134;2024-02-23T14:26:03;10.00;82.20
38684;DHT22;24910;53.248;-6.134;2024-02-23T14:28:32;10.00;82.10
38684;DHT22;24910;53.248;-6.134;2024-02-23T14:31:03;10.00;82.00
38684;DHT22;24910;53.248;-6.134;2024-02-23T14:33:32;10.00;82.10
38684;DHT22;24910;53.248;-6.134;2024-02-23T14:36:01;10.00;82.00
38684;DHT22;24910;53.248;-6.134;2024-02-23T14:38:30;10.10;82.00
38684;DHT22;24910;53.248;-6.134;2024-02-23T14:40:59;10.10;82.00
38684;DHT22;24910;53.248;-6.134;2024-02-23T14:43:28;10.10;81.80
38684;DHT22;24910;53.248;-6.134;2024-02-23T14:45:58;10.10;81.80
38684;DHT22;24910;53.248;-6.134;2024-02-23T14:48:28;10.10;81.80
38684;DHT22;24910;53.248;-6.134;2024-02-23T14:50:58;10.00;81.70
38684;DHT22;24910;53.248;-6.134;2024-02-23T14:53:27;10.00;81.90
38684;DHT22;24910;53.248;-6.134;2024-02-23T14:55:56;9.90;81.70
38684;DHT22;24910;53.248;-6.134;2024-02-23T14:58:25;9.90;81.80
38684;DHT22;24910;53.248;-6.134;2024-02-23T15:00:54;9.80;81.80
38684;DHT22;24910;53.248;-6.134;2024-02-23T15:03:24;9.80;81.70
38684;DHT22;24910;53.248;-6.134;2024-02-23T15:05:55;9.90;81.70
38684;DHT22;24910;53.248;-6.134;2024-02-23T15:08:24;9.80;81.70
38684;DHT22;24910;53.248;-6.134;2024-02-23T15:10:53;9.90;81.60
38684;DHT22;24910;53.248;-6.134;2024-02-23T15:13:23;9.90;81.50
38684;DHT22;24910;53.248;-6.134;2024-02-23T15:15:52;9.90;81.50
38684;DHT22;24910;53.248;-6.134;2024-02-23T15:18:21;9.90;81.50
38684;DHT22;24910;53.248;-6.134;2024-02-23T15:20:50;9.90;81.50
38684;DHT22;24910;53.248;-6.134;2024-02-23T15:23:21;9.90;81.40
38684;DHT22;24910;53.248;-6.134;2024-02-23T15:25:51;9.90;81.50
38684;DHT22;24910;53.248;-6.134;2024-02-23T15:28:33;9.90;81.40
38684;DHT22;24910;53.248;-6.134;2024-02-23T15:31:03;9.90;82.20
38684;DHT22;24910;53.248;-6.134;2024-02-23T15:33:32;10.00;81.40
38684;DHT22;24910;53.248;-6.134;2024-02-23T15:36:02;10.00;81.30
38684;DHT22;24910;53.248;-6.134;2024-02-23T15:38:33;10.00;81.30
38684;DHT22;24910;53.248;-6.134;2024-02-23T15:41:02;10.10;81.30
38684;DHT22;24910;53.248;-6.134;2024-02-23T15:43:32;10.00;81.20